Time;durP1;ratioP1;P1;durP2;ratioP2;P2;SDS_P1;SDS_P2;PMS_P1;PMS_P2;Temp;Humidity;BMP_temperature;BMP_pressure;BME280_temperature;BME280_humidity;BME280_pressure;Samples;Min_cycle;Max_cycle;Signal;HPM_P1;HPM_P2
2023/04/20 00:00:33;;;;;;;6.63;3.78;;;7.00;98.80;;;;;;4987220;28;20430;-64
2023/04/20 00:03:00;;;;;;;6.60;3.67;;;7.00;99.10;;;;;;4959178;28;20093;-64
2023/04/20 00:05:26;;;;;;;5.68;4.15;;;7.00;99.90;;;;;;4975408;28;20136;-64
2023/04/20 00:07:53;;;;;;;6.95;4.03;;;7.00;99.50;;;;;;4998380;28;20082;-64
2023/04/20 00:10:20;;;;;;;8.82;3.63;;;7.00;99.80;;;;;;4975489;28;20060;-63
2023/04/20 00:12:46;;;;;;;5.80;3.95;;;6.90;99.90;;;;;;4972327;28;20081;-64
2023/04/20 00:15:12;;;;;;;7.45;4.07;;;6.90;99.70;;;;;;4971971;28;20189;-63
2023/04/20 00:17:38;;;;;;;5.95;3.83;;;6.90;99.90;;;;;;4963618;28;20069;-64
2023/04/20 00:20:06;;;;;;;6.93;4.15;;;6.90;99.90;;;;;;4971522;28;20039;-63
2023/04/20 00:22:33;;;;;;;4.60;3.60;;;6.90;99.90;;;;;;4956530;28;20086;-63
2023/04/20 00:24:59;;;;;;;8.27;4.28;;;6.90;99.90;;;;;;4963643;28;20129;-64
2023/04/20 00:27:25;;;;;;;4.15;3.60;;;6.90;99.90;;;;;;4973179;28;20058;-64
2023/04/20 00:29:51;;;;;;;6.35;3.83;;;6.90;99.90;;;;;;4968280;28;20051;-63
2023/04/20 00:32:18;;;;;;;6.97;3.78;;;6.90;99.90;;;;;;4961114;28;20312;-64
2023/04/20 00:34:44;;;;;;;5.32;3.53;;;7.00;99.90;;;;;;4962284;28;20105;-64
2023/04/20 00:37:11;;;;;;;5.25;4.18;;;7.00;99.90;;;;;;4963130;28;20058;-64
2023/04/20 00:39:37;;;;;;;4.97;3.08;;;7.00;99.90;;;;;;4963029;28;20359;-64
2023/04/20 00:42:07;;;;;;;5.57;3.63;;;7.00;99.90;;;;;;4955861;28;20066;-64
2023/04/20 00:44:34;;;;;;;5.28;3.70;;;7.00;99.90;;;;;;4963542;28;20078;-63
2023/04/20 00:47:01;;;;;;;6.05;4.13;;;7.00;99.90;;;;;;4967935;28;20054;-63
2023/04/20 00:49:29;;;;;;;6.30;3.75;;;7.00;99.90;;;;;;4959689;28;20058;-64
2023/04/20 00:51:57;;;;;;;7.60;4.50;;;7.00;99.90;;;;;;4960144;28;20050;-63
2023/04/20 00:54:25;;;;;;;6.00;4.60;;;7.00;99.90;;;;;;4958515;28;20508;-63
2023/04/20 00:56:54;;;;;;;5.55;4.03;;;6.90;99.90;;;;;;4959419;28;20510;-64
2023/04/20 00:59:21;;;;;;;4.57;3.58;;;6.90;99.90;;;;;;4972912;28;20530;-63
2023/04/20 01:01:48;;;;;;;6.43;4.40;;;6.90;99.90;;;;;;4957945;28;20059;-63
2023/04/20 01:04:15;;;;;;;7.25;3.92;;;6.90;99.90;;;;;;4959230;28;20383;-64
2023/04/20 01:06:41;;;;;;;6.70;3.85;;;6.80;99.90;;;;;;4955600;28;20543;-64
2023/04/20 01:09:14;;;;;;;5.30;4.00;;;6.80;99.90;;;;;;4940006;28;20062;-63
2023/04/20 01:11:40;;;;;;;5.13;3.60;;;6.80;99.90;;;;;;4961572;28;20065;-64
2023/04/20 01:14:06;;;;;;;6.82;4.10;;;6.70;99.90;;;;;;4951343;28;20537;-64
2023/04/20 01:16:35;;;;;;;6.20;4.38;;;6.80;99.90;;;;;;4963596;28;20081;-64
2023/04/20 01:19:02;;;;;;;6.50;4.32;;;6.70;99.90;;;;;;4963723;28;20135;-64
2023/04/20 01:21:28;;;;;;;5.28;3.92;;;6.70;99.90;;;;;;4959497;28;20434;-64
2023/04/20 01:23:54;;;;;;;7.00;4.40;;;6.70;99.90;;;;;;4973394;28;20137;-64
2023/04/20 01:26:22;;;;;;;6.10;3.22;;;6.70;99.90;;;;;;4958881;28;20058;-64
2023/04/20 01:28:49;;;;;;;5.20;3.50;;;6.70;99.90;;;;;;4974001;28;20342;-64
2023/04/20 01:31:15;;;;;;;4.53;3.67;;;6.70;99.90;;;;;;4947844;29;20039;-64
2023/04/20 01:33:42;;;;;;;5.30;3.85;;;6.80;99.90;;;;;;4963919;28;20042;-64
2023/04/20 01:36:09;;;;;;;6.40;4.15;;;6.80;99.90;;;;;;4967000;28;20051;-64
2023/04/20 01:38:35;;;;;;;6.72;3.50;;;6.90;99.90;;;;;;4962938;28;20387;-64
2023/04/20 01:41:06;;;;;;;7.05;3.58;;;6.90;99.90;;;;;;4959250;28;20050;-64
2023/04/20 01:43:35;;;;;;;4.97;3.65;;;7.00;99.90;;;;;;4962380;28;20069;-64
2023/04/20 01:46:01;;;;;;;6.13;3.63;;;7.10;99.90;;;;;;4991184;28;20082;-64
2023/04/20 01:48:27;;;;;;;6.93;3.70;;;7.10;99.90;;;;;;4963373;28;20058;-64
2023/04/20 01:50:54;;;;;;;4.72;3.13;;;7.10;99.90;;;;;;4967318;28;20054;-64
2023/04/20 01:53:20;;;;;;;4.57;3.47;;;7.20;99.90;;;;;;4977167;28;20050;-64
2023/04/20 01:55:48;;;;;;;6.43;3.33;;;7.20;99.90;;;;;;4961277;28;20066;-64
2023/04/20 01:58:14;;;;;;;7.32;3.35;;;7.30;99.90;;;;;;4969312;28;20050;-64
2023/04/20 02:00:41;;;;;;;5.45;3.58;;;7.30;99.90;;;;;;4946439;28;20376;-64
2023/04/20 02:03:07;;;;;;;5.80;3.60;;;7.40;99.90;;;;;;4966130;28;20090;-64
2023/04/20 02:05:33;;;;;;;7.35;3.85;;;7.40;99.90;;;;;;4969928;28;20051;-64
2023/04/20 02:07:59;;;;;;;7.20;3.10;;;7.50;99.90;;;;;;4966390;28;20149;-64
2023/04/20 02:10:26;;;;;;;6.03;3.55;;;7.50;99.90;;;;;;4966006;28;20134;-64
2023/04/20 02:12:52;;;;;;;5.32;3.10;;;7.50;99.90;;;;;;4964570;28;20047;-64
2023/04/20 02:15:18;;;;;;;4.65;3.42;;;7.50;99.90;;;;;;4974367;28;20470;-65
2023/04/20 02:17:50;;;;;;;4.22;3.45;;;7.50;99.90;;;;;;4961402;28;20092;-64
2023/04/20 02:20:18;;;;;;;5.47;3.50;;;7.50;99.90;;;;;;4979798;28;20054;-64
2023/04/20 02:22:45;;;;;;;4.45;3.97;;;7.50;99.90;;;;;;4987519;28;20141;-64
2023/04/20 02:25:11;;;;;;;4.65;2.80;;;7.60;99.90;;;;;;4978784;28;20137;-65
2023/04/20 02:27:37;;;;;;;5.70;2.95;;;7.60;99.90;;;;;;4986033;28;20316;-65
2023/04/20 02:30:04;;;;;;;7.32;3.38;;;7.50;99.90;;;;;;4977010;28;20050;-64
2023/04/20 02:32:31;;;;;;;5.05;3.20;;;7.50;99.90;;;;;;4979851;28;20081;-64
2023/04/20 02:34:58;;;;;;;5.55;2.83;;;7.60;99.90;;;;;;4977509;28;20065;-64
2023/04/20 02:37:24;;;;;;;8.55;2.67;;;7.60;99.90;;;;;;4991509;28;20050;-64
2023/04/20 02:39:50;;;;;;;4.57;3.13;;;7.50;99.90;;;;;;4986691;28;20482;-64
2023/04/20 02:42:17;;;;;;;3.78;2.92;;;7.50;99.90;;;;;;4979694;28;20370;-64
2023/04/20 02:44:43;;;;;;;4.65;2.70;;;7.50;99.90;;;;;;4982140;28;20060;-65
2023/04/20 02:47:09;;;;;;;6.00;3.17;;;7.60;99.90;;;;;;4990295;28;20085;-64
2023/04/20 02:49:35;;;;;;;5.13;2.90;;;7.60;99.90;;;;;;4976858;28;20097;-64
2023/04/20 02:52:02;;;;;;;4.85;3.05;;;7.60;99.90;;;;;;4978532;28;20397;-64
2023/04/20 02:54:28;;;;;;;5.13;2.92;;;7.60;99.90;;;;;;4975348;28;20145;-65
2023/04/20 02:56:55;;;;;;;4.07;2.45;;;7.60;99.90;;;;;;4990547;28;20090;-64
2023/04/20 02:59:21;;;;;;;4.97;3.10;;;7.60;99.90;;;;;;4988983;28;20141;-64
2023/04/20 03:01:47;;;;;;;4.88;2.88;;;7.70;99.90;;;;;;4983333;28;20065;-65
2023/04/20 03:04:13;;;;;;;4.47;3.28;;;7.60;99.90;;;;;;4986191;28;20129;-65
2023/04/20 03:06:41;;;;;;;4.88;3.05;;;7.70;99.90;;;;;;4980343;28;20130;-65
2023/04/20 03:09:08;;;;;;;4.63;3.50;;;7.60;99.90;;;;;;4979799;28;20113;-64
2023/04/20 03:11:34;;;;;;;5.25;2.35;;;7.70;99.90;;;;;;4976844;28;20403;-64
2023/04/20 03:14:00;;;;;;;4.93;2.60;;;7.70;99.90;;;;;;4964026;28;20073;-64
2023/04/20 03:16:27;;;;;;;4.10;2.78;;;7.70;99.90;;;;;;4975126;28;20090;-64
2023/04/20 03:18:53;;;;;;;3.28;2.58;;;7.70;99.90;;;;;;4984241;28;20096;-65
2023/04/20 03:21:19;;;;;;;4.90;2.53;;;7.70;99.90;;;;;;4999637;28;20093;-64
2023/04/20 03:23:45;;;;;;;3.55;2.70;;;7.70;99.90;;;;;;4979976;28;20059;-64
2023/04/20 03:26:12;;;;;;;8.15;2.67;;;7.70;99.90;;;;;;4977700;28;20109;-64
2023/04/20 03:28:38;;;;;;;4.95;2.67;;;7.70;99.90;;;;;;4979576;28;20054;-65
2023/04/20 03:31:05;;;;;;;4.03;2.33;;;7.70;99.90;;;;;;4976630;28;20050;-64
2023/04/20 03:33:31;;;;;;;4.15;2.92;;;7.80;99.90;;;;;;4975518;28;20050;-64
2023/04/20 03:35:58;;;;;;;3.80;2.78;;;7.80;99.90;;;;;;4980109;28;20174;-65
2023/04/20 03:38:24;;;;;;;5.30;2.78;;;7.90;99.90;;;;;;4975683;28;20050;-64
2023/04/20 03:40:50;;;;;;;3.67;2.28;;;7.90;99.90;;;;;;4977570;28;20375;-65
2023/04/20 03:43:17;;;;;;;3.80;2.53;;;8.00;99.90;;;;;;4977064;28;20082;-64
2023/04/20 03:45:43;;;;;;;6.75;2.65;;;8.00;99.90;;;;;;4977967;28;20141;-64
2023/04/20 03:48:09;;;;;;;3.85;2.05;;;8.10;99.90;;;;;;4983843;28;20050;-64
2023/04/20 03:50:35;;;;;;;5.13;3.10;;;8.10;99.90;;;;;;4975770;28;20082;-64
2023/04/20 03:53:02;;;;;;;6.25;2.42;;;8.20;99.90;;;;;;4959317;28;20042;-64
2023/04/20 03:55:28;;;;;;;4.28;2.17;;;8.20;99.90;;;;;;4972727;28;20137;-65
2023/04/20 03:57:54;;;;;;;7.35;2.47;;;8.20;99.90;;;;;;4975450;28;20085;-64
2023/04/20 04:00:21;;;;;;;6.72;2.67;;;8.20;99.90;;;;;;4967731;28;20205;-64
2023/04/20 04:02:47;;;;;;;4.18;2.40;;;8.20;99.90;;;;;;4993160;28;20050;-64
2023/04/20 04:05:13;;;;;;;5.22;3.08;;;8.20;99.90;;;;;;4977020;28;20058;-64
2023/04/20 04:07:40;;;;;;;4.60;2.60;;;8.30;99.90;;;;;;4995854;28;20056;-65
2023/04/20 04:10:06;;;;;;;5.55;2.75;;;8.30;99.90;;;;;;4976634;28;20455;-64
2023/04/20 04:12:33;;;;;;;6.93;3.10;;;8.30;99.90;;;;;;4979320;28;20331;-64
2023/04/20 04:14:59;;;;;;;4.82;2.80;;;8.30;99.90;;;;;;4977127;28;20160;-64
2023/04/20 04:17:25;;;;;;;5.53;2.60;;;8.30;99.90;;;;;;4983813;28;20061;-65
2023/04/20 04:19:51;;;;;;;4.85;2.72;;;8.40;99.90;;;;;;4986991;28;20042;-65
2023/04/20 04:22:18;;;;;;;4.43;2.60;;;8.30;99.90;;;;;;4975409;28;20183;-64
2023/04/20 04:24:44;;;;;;;7.10;3.10;;;8.30;99.90;;;;;;4994068;28;20082;-64
2023/04/20 04:27:13;;;;;;;3.67;2.70;;;8.30;99.90;;;;;;4976575;28;20070;-65
2023/04/20 04:29:40;;;;;;;4.20;3.00;;;8.30;99.90;;;;;;4975280;28;20076;-65
2023/04/20 04:32:08;;;;;;;7.60;3.00;;;8.30;99.90;;;;;;4974879;28;20107;-64
2023/04/20 04:34:34;;;;;;;4.82;2.85;;;8.30;99.90;;;;;;4980828;28;20061;-64
2023/04/20 04:37:01;;;;;;;6.82;2.72;;;8.30;99.90;;;;;;4982414;28;20096;-65
2023/04/20 04:39:29;;;;;;;4.55;2.60;;;8.30;99.90;;;;;;4986439;28;20084;-64
2023/04/20 04:41:56;;;;;;;6.75;2.78;;;8.20;99.90;;;;;;4974999;28;20051;-65
2023/04/20 04:44:24;;;;;;;5.00;3.10;;;8.20;99.90;;;;;;4975307;28;20092;-64
2023/04/20 04:46:51;;;;;;;3.97;2.95;;;8.20;99.90;;;;;;4975614;28;20463;-64
2023/04/20 04:49:17;;;;;;;4.68;3.42;;;8.20;99.90;;;;;;4974633;28;20085;-64
2023/04/20 04:51:43;;;;;;;5.03;2.63;;;8.10;99.90;;;;;;4959196;28;20138;-65
2023/04/20 04:54:10;;;;;;;4.45;3.20;;;8.00;99.90;;;;;;4976535;28;20476;-65
2023/04/20 04:56:36;;;;;;;5.28;2.53;;;7.90;99.90;;;;;;4964581;28;20042;-65
2023/04/20 04:59:02;;;;;;;5.22;3.00;;;7.80;99.90;;;;;;4960051;28;20446;-64
2023/04/20 05:01:28;;;;;;;6.07;3.22;;;7.80;99.90;;;;;;4979244;28;20065;-65
2023/04/20 05:03:55;;;;;;;4.25;3.42;;;7.70;99.90;;;;;;4978561;28;20178;-64
2023/04/20 05:06:21;;;;;;;5.78;3.17;;;7.60;99.90;;;;;;4976186;28;20086;-65
2023/04/20 05:08:47;;;;;;;5.88;2.90;;;7.60;99.90;;;;;;4963213;28;20117;-64
2023/04/20 05:11:14;;;;;;;6.20;3.03;;;7.60;99.90;;;;;;4996759;28;20054;-65
2023/04/20 05:13:40;;;;;;;6.68;3.03;;;7.60;99.90;;;;;;4986513;28;20082;-65
2023/04/20 05:16:07;;;;;;;4.15;2.97;;;7.60;99.90;;;;;;4978782;28;20133;-65
2023/04/20 05:18:33;;;;;;;4.38;2.67;;;7.50;99.90;;;;;;4996064;28;20046;-65
2023/04/20 05:20:59;;;;;;;4.85;2.97;;;7.50;99.90;;;;;;4989955;28;20060;-65
2023/04/20 05:23:25;;;;;;;5.03;2.90;;;7.50;99.90;;;;;;4986623;28;20050;-66
2023/04/20 05:25:51;;;;;;;5.72;3.80;;;7.40;99.90;;;;;;4976966;28;20078;-64
2023/04/20 05:28:18;;;;;;;7.43;4.00;;;7.40;99.90;;;;;;4979070;28;20065;-65
2023/04/20 05:30:44;;;;;;;4.22;2.88;;;7.50;99.90;;;;;;4991912;28;20085;-65
2023/04/20 05:33:10;;;;;;;4.40;3.63;;;7.40;99.90;;;;;;4981665;28;20355;-64
2023/04/20 05:35:39;;;;;;;4.30;3.05;;;7.50;99.90;;;;;;4986388;28;20116;-64
2023/04/20 05:38:06;;;;;;;4.10;3.20;;;7.50;99.90;;;;;;4983002;28;20051;-63
2023/04/20 05:40:35;;;;;;;6.22;3.25;;;7.40;99.90;;;;;;4981995;28;20042;-63
2023/04/20 05:43:01;;;;;;;3.95;3.03;;;7.50;99.90;;;;;;4983872;28;20124;-64
2023/04/20 05:45:27;;;;;;;6.78;3.10;;;7.50;99.90;;;;;;4982523;28;20116;-63
2023/04/20 05:47:55;;;;;;;5.10;3.13;;;7.50;99.90;;;;;;4985613;28;20400;-63
2023/04/20 05:50:26;;;;;;;4.82;3.15;;;7.50;99.90;;;;;;4982598;28;20089;-63
2023/04/20 05:52:52;;;;;;;5.97;2.90;;;7.50;99.90;;;;;;4976122;28;20078;-64
2023/04/20 05:55:19;;;;;;;5.03;3.60;;;7.60;99.90;;;;;;4978005;28;20133;-64
2023/04/20 05:57:45;;;;;;;3.60;2.58;;;7.50;99.90;;;;;;4959524;28;20138;-64
2023/04/20 06:00:14;;;;;;;7.25;3.15;;;7.60;99.90;;;;;;4978303;28;20463;-64
2023/04/20 06:02:41;;;;;;;6.88;2.97;;;7.50;99.90;;;;;;4977484;28;20073;-64
2023/04/20 06:05:09;;;;;;;4.45;3.42;;;7.60;99.90;;;;;;4989883;28;20058;-64
2023/04/20 06:07:36;;;;;;;5.82;2.90;;;7.60;99.90;;;;;;4982534;28;20129;-65
2023/04/20 06:10:03;;;;;;;6.13;3.00;;;7.60;99.90;;;;;;4988760;28;20355;-65
2023/04/20 06:12:29;;;;;;;5.78;2.85;;;7.60;99.90;;;;;;4977801;28;20389;-65
2023/04/20 06:14:56;;;;;;;6.22;3.50;;;7.60;99.90;;;;;;4978230;28;20109;-64
2023/04/20 06:17:23;;;;;;;4.55;2.78;;;7.50;99.90;;;;;;4990223;28;20055;-64
2023/04/20 06:19:49;;;;;;;4.85;2.92;;;7.50;99.90;;;;;;4975663;28;20054;-64
2023/04/20 06:22:16;;;;;;;7.70;3.80;;;7.50;99.90;;;;;;4974354;28;20467;-65
2023/04/20 06:24:43;;;;;;;5.55;2.80;;;7.50;99.90;;;;;;4990052;28;20098;-65
2023/04/20 06:27:09;;;;;;;4.95;3.22;;;7.40;99.90;;;;;;4974201;28;20059;-64
2023/04/20 06:29:36;;;;;;;4.85;2.45;;;7.40;99.90;;;;;;4994076;28;20082;-65
2023/04/20 06:32:03;;;;;;;9.68;3.53;;;7.30;99.90;;;;;;4973586;28;20112;-65
2023/04/20 06:34:29;;;;;;;5.93;2.88;;;7.30;99.90;;;;;;4988816;28;20134;-66
2023/04/20 06:36:56;;;;;;;6.18;3.53;;;7.30;99.90;;;;;;4979880;28;20093;-65
2023/04/20 06:39:22;;;;;;;5.05;3.60;;;7.20;99.90;;;;;;4975039;28;20561;-66
2023/04/20 06:41:48;;;;;;;4.18;3.05;;;7.10;99.90;;;;;;4977224;28;20141;-65
2023/04/20 06:44:15;;;;;;;4.35;3.70;;;7.00;99.90;;;;;;4977078;28;20050;-65
2023/04/20 06:46:41;;;;;;;7.82;4.03;;;7.00;99.90;;;;;;4973385;28;20549;-65
2023/04/20 06:49:07;;;;;;;6.10;3.38;;;6.90;99.90;;;;;;4970433;28;20042;-65
2023/04/20 06:51:33;;;;;;;7.47;3.53;;;6.90;99.90;;;;;;4971243;28;20161;-65
2023/04/20 06:54:00;;;;;;;6.32;4.00;;;6.70;99.90;;;;;;4971788;28;20043;-65
2023/04/20 06:56:26;;;;;;;7.75;3.60;;;6.60;99.90;;;;;;4972900;28;20209;-64
2023/04/20 06:58:52;;;;;;;6.68;3.80;;;6.50;99.90;;;;;;4969661;28;20430;-65
2023/04/20 07:01:19;;;;;;;7.97;4.30;;;6.40;99.90;;;;;;4970653;28;20411;-65
2023/04/20 07:03:45;;;;;;;7.95;4.30;;;6.30;99.90;;;;;;4970195;28;20467;-64
2023/04/20 07:06:12;;;;;;;5.93;4.40;;;6.10;99.90;;;;;;4970513;28;20467;-64
2023/04/20 07:08:39;;;;;;;8.43;5.13;;;6.00;99.90;;;;;;4961926;28;20051;-65
2023/04/20 07:11:05;;;;;;;6.28;4.47;;;5.90;99.90;;;;;;4969593;28;20054;-64
2023/04/20 07:13:31;;;;;;;5.95;4.10;;;6.00;99.90;;;;;;4987602;28;20447;-64
2023/04/20 07:15:58;;;;;;;4.82;3.90;;;5.90;99.90;;;;;;4969179;28;20071;-64
2023/04/20 07:18:24;;;;;;;5.25;4.35;;;5.90;99.90;;;;;;4969332;28;20071;-65
2023/04/20 07:20:51;;;;;;;8.02;4.47;;;5.90;99.90;;;;;;4955747;28;20093;-64
2023/04/20 07:23:17;;;;;;;5.53;3.90;;;5.90;99.90;;;;;;4961684;28;20086;-64
2023/04/20 07:25:44;;;;;;;7.53;4.50;;;5.90;99.90;;;;;;4969392;28;20071;-63
2023/04/20 07:28:10;;;;;;;6.95;4.15;;;5.90;99.90;;;;;;4957928;28;20062;-64
2023/04/20 07:30:36;;;;;;;5.38;4.60;;;6.00;99.90;;;;;;4961991;28;20078;-64
2023/04/20 07:33:03;;;;;;;6.30;4.15;;;5.90;99.90;;;;;;4967992;28;20054;-64
2023/04/20 07:35:29;;;;;;;5.15;3.63;;;6.00;99.90;;;;;;4965593;28;20062;-64
2023/04/20 07:37:55;;;;;;;8.50;4.47;;;6.00;99.90;;;;;;4967791;28;20081;-64
2023/04/20 07:40:22;;;;;;;7.43;4.57;;;5.90;99.90;;;;;;4968405;28;20047;-64
2023/04/20 07:42:48;;;;;;;7.00;3.75;;;5.90;99.90;;;;;;4956779;28;20146;-64
2023/04/20 07:45:14;;;;;;;6.05;4.07;;;6.00;99.90;;;;;;4972761;28;20063;-63
2023/04/20 07:47:43;;;;;;;6.75;4.53;;;6.00;99.90;;;;;;4969170;28;20157;-64
2023/04/20 07:50:10;;;;;;;7.43;4.95;;;6.20;99.90;;;;;;4973273;28;20137;-64
2023/04/20 07:52:36;;;;;;;5.38;4.07;;;6.20;99.90;;;;;;4969991;28;20070;-63
2023/04/20 07:55:03;;;;;;;8.88;4.75;;;6.20;99.90;;;;;;4978351;28;20401;-64
2023/04/20 07:57:29;;;;;;;7.38;4.60;;;6.30;99.90;;;;;;4968687;28;20074;-64
2023/04/20 07:59:55;;;;;;;6.32;4.45;;;6.30;99.90;;;;;;4969035;28;20506;-64
2023/04/20 08:02:21;;;;;;;7.93;4.70;;;6.30;99.90;;;;;;4958207;28;20129;-63
2023/04/20 08:04:48;;;;;;;5.82;4.28;;;6.40;99.90;;;;;;4960836;28;20076;-64
2023/04/20 08:07:15;;;;;;;6.00;3.78;;;6.40;99.90;;;;;;4946894;28;20055;-63
2023/04/20 08:09:41;;;;;;;6.07;4.50;;;6.50;99.90;;;;;;4961653;28;20055;-65
2023/04/20 08:12:07;;;;;;;8.07;4.70;;;6.50;99.90;;;;;;4963431;28;20062;-63
2023/04/20 08:14:34;;;;;;;5.82;4.43;;;6.60;99.90;;;;;;4969401;28;20051;-64
2023/04/20 08:17:00;;;;;;;5.93;4.00;;;6.60;99.90;;;;;;4970403;28;20419;-64
2023/04/20 08:19:26;;;;;;;7.43;4.43;;;6.70;99.90;;;;;;4971725;28;20085;-65
2023/04/20 08:21:53;;;;;;;6.13;4.18;;;6.80;99.90;;;;;;4971843;28;20173;-65
2023/04/20 08:24:19;;;;;;;7.95;5.07;;;6.80;99.90;;;;;;4972179;28;20145;-64
2023/04/20 08:26:45;;;;;;;6.05;3.85;;;6.90;99.90;;;;;;4973054;28;20081;-65
2023/04/20 08:29:12;;;;;;;8.32;4.90;;;7.00;99.90;;;;;;4974898;28;20065;-64
2023/04/20 08:31:38;;;;;;;5.68;4.00;;;7.20;99.90;;;;;;4975732;28;20125;-64
2023/04/20 08:34:05;;;;;;;8.57;5.00;;;7.30;99.90;;;;;;4976762;28;20055;-64
2023/04/20 08:36:31;;;;;;;7.80;4.70;;;7.50;99.90;;;;;;4976051;28;20043;-64
2023/04/20 08:39:12;;;;;;;6.93;4.50;;;7.50;99.90;;;;;;4976149;28;20045;-65
2023/04/20 08:41:39;;;;;;;9.07;4.60;;;7.70;99.90;;;;;;4976107;28;20043;-65
2023/04/20 08:44:06;;;;;;;9.00;4.30;;;7.70;99.90;;;;;;4975878;28;20105;-64
2023/04/20 08:46:33;;;;;;;7.57;4.85;;;7.60;99.90;;;;;;4976200;28;20062;-64
2023/04/20 08:49:03;;;;;;;6.68;5.20;;;7.60;99.90;;;;;;4975396;28;20425;-64
2023/04/20 08:51:31;;;;;;;7.78;4.53;;;7.70;99.90;;;;;;4975764;28;20469;-65
2023/04/20 08:54:06;;;;;;;6.00;4.50;;;7.70;99.90;;;;;;4975833;28;20158;-65
2023/04/20 08:56:44;;;;;;;10.45;5.78;;;7.60;99.90;;;;;;4978778;28;20078;-64
2023/04/20 08:59:12;;;;;;;7.22;4.95;;;7.60;99.90;;;;;;4976467;28;20164;-64
2023/04/20 09:01:40;;;;;;;9.18;4.93;;;7.60;99.90;;;;;;4992843;28;20046;-66
2023/04/20 09:04:16;;;;;;;9.88;5.07;;;7.70;99.90;;;;;;4981453;28;20112;-65
2023/04/20 09:06:49;;;;;;;8.63;5.10;;;7.60;99.90;;;;;;4973224;28;20544;-64
2023/04/20 09:09:15;;;;;;;8.63;5.45;;;7.70;99.90;;;;;;4976273;28;20058;-66
2023/04/20 09:11:42;;;;;;;7.63;4.60;;;7.80;99.90;;;;;;4959711;28;20053;-65
2023/04/20 09:14:11;;;;;;;7.68;5.18;;;7.90;99.90;;;;;;4992901;28;20050;-65
2023/04/20 09:17:03;;;;;;;9.30;5.30;;;7.90;99.90;;;;;;4975002;28;20200;-65
2023/04/20 09:19:31;;;;;;;7.40;5.63;;;8.00;99.90;;;;;;4959817;28;20062;-65
2023/04/20 09:22:00;;;;;;;7.75;5.35;;;8.00;99.90;;;;;;4974683;28;20074;-66
2023/04/20 09:24:31;;;;;;;8.02;5.15;;;8.00;99.90;;;;;;4975823;28;20145;-65
2023/04/20 09:26:58;;;;;;;9.57;5.40;;;8.10;99.90;;;;;;4975140;28;20054;-65
2023/04/20 09:29:24;;;;;;;7.28;5.18;;;8.10;99.90;;;;;;4975297;28;20731;-65
2023/04/20 09:31:51;;;;;;;6.63;5.25;;;8.20;99.90;;;;;;4974841;28;20134;-65
2023/04/20 09:34:18;;;;;;;7.75;5.50;;;8.30;99.90;;;;;;4977332;28;20061;-64
2023/04/20 09:36:49;;;;;;;9.48;5.28;;;8.40;99.90;;;;;;4976007;28;20394;-65
2023/04/20 09:39:20;;;;;;;6.63;5.65;;;8.30;99.90;;;;;;4977365;28;20093;-64
2023/04/20 09:41:48;;;;;;;8.27;5.43;;;8.30;99.90;;;;;;4974299;28;20073;-63
2023/04/20 09:44:16;;;;;;;9.13;4.90;;;8.40;99.90;;;;;;4975066;28;20054;-65
2023/04/20 09:46:44;;;;;;;7.03;5.70;;;8.30;99.90;;;;;;4974934;28;20065;-65
2023/04/20 09:49:12;;;;;;;7.53;5.78;;;8.40;99.90;;;;;;4974578;28;20066;-65
2023/04/20 09:51:43;;;;;;;8.15;6.18;;;8.30;99.90;;;;;;4975021;28;20074;-65
2023/04/20 09:54:11;;;;;;;7.28;5.82;;;8.40;99.90;;;;;;4975209;28;20095;-65
2023/04/20 09:56:38;;;;;;;8.32;5.40;;;8.40;99.90;;;;;;4965971;28;20144;-65
2023/04/20 09:59:05;;;;;;;7.75;5.10;;;8.50;99.90;;;;;;4974742;28;20050;-65
2023/04/20 10:01:33;;;;;;;9.25;5.07;;;8.60;99.90;;;;;;4974500;28;20050;-65
2023/04/20 10:04:01;;;;;;;10.90;6.00;;;8.60;99.90;;;;;;4993404;28;20117;-65
2023/04/20 10:06:33;;;;;;;9.50;5.80;;;8.70;99.90;;;;;;4976837;28;20051;-65
2023/04/20 10:09:07;;;;;;;10.13;6.28;;;8.80;99.90;;;;;;4977627;28;20497;-65
2023/04/20 10:11:40;;;;;;;7.30;5.53;;;8.90;99.90;;;;;;4979830;28;20450;-65
2023/04/20 10:14:22;;;;;;;11.20;5.75;;;8.90;99.90;;;;;;4985936;28;20065;-65
2023/04/20 10:17:00;;;;;;;8.63;6.25;;;8.90;99.90;;;;;;4960175;28;20139;-65
2023/04/20 10:19:43;;;;;;;8.80;6.40;;;9.00;99.90;;;;;;4964750;28;20118;-65
2023/04/20 10:22:11;;;;;;;9.52;6.65;;;9.10;99.90;;;;;;4952258;28;20055;-64
2023/04/20 10:24:38;;;;;;;8.95;5.90;;;9.20;99.90;;;;;;4959101;28;20379;-64
2023/04/20 10:27:20;;;;;;;7.32;5.90;;;9.40;99.90;;;;;;4962864;28;20157;-65
2023/04/20 10:29:47;;;;;;;8.90;6.22;;;9.70;99.90;;;;;;4962576;28;20074;-64
2023/04/20 10:32:40;;;;;;;11.15;6.25;;;10.00;99.90;;;;;;4961670;28;20057;-65
2023/04/20 10:35:09;;;;;;;6.95;6.05;;;10.10;99.90;;;;;;4963124;28;21144;-64
2023/04/20 10:37:45;;;;;;;9.98;7.28;;;10.10;99.90;;;;;;4958630;28;20082;-65
2023/04/20 10:40:12;;;;;;;8.85;6.38;;;10.20;99.90;;;;;;4969709;28;20073;-65
2023/04/20 10:42:45;;;;;;;9.98;6.55;;;10.20;99.90;;;;;;4967132;28;20047;-65
2023/04/20 10:45:11;;;;;;;8.63;6.13;;;10.20;99.90;;;;;;4967687;28;20149;-65
2023/04/20 10:47:39;;;;;;;8.52;6.45;;;10.20;99.90;;;;;;4963280;28;20051;-64
2023/04/20 10:50:10;;;;;;;9.45;7.32;;;10.20;99.90;;;;;;4945965;28;20093;-64
2023/04/20 10:52:39;;;;;;;6.97;5.85;;;10.30;99.90;;;;;;4962673;28;20470;-65
2023/04/20 10:55:27;;;;;;;9.82;8.02;;;10.30;99.90;;;;;;4970110;28;20078;-65
2023/04/20 10:57:53;;;;;;;9.23;6.93;;;10.40;99.90;;;;;;4986468;28;20087;-65
2023/04/20 11:00:28;;;;;;;9.05;6.82;;;10.50;99.90;;;;;;4970422;28;20078;-64
2023/04/20 11:02:55;;;;;;;9.40;7.63;;;10.30;99.90;;;;;;4962745;28;20130;-65
2023/04/20 11:05:25;;;;;;;10.38;6.57;;;10.30;99.90;;;;;;4969553;28;20081;-66
2023/04/20 11:07:57;;;;;;;8.23;7.18;;;10.30;99.90;;;;;;4939128;28;20138;-65
2023/04/20 11:10:36;;;;;;;8.88;6.50;;;10.50;99.90;;;;;;4961822;28;20077;-65
2023/04/20 11:13:02;;;;;;;9.00;7.55;;;10.70;99.90;;;;;;4955727;28;20082;-65
2023/04/20 11:15:32;;;;;;;9.07;7.80;;;10.80;99.90;;;;;;4967295;28;20146;-64
2023/04/20 11:18:10;;;;;;;12.40;7.68;;;11.00;99.90;;;;;;4973094;28;20066;-64
2023/04/20 11:20:53;;;;;;;9.55;7.40;;;11.00;99.90;;;;;;4974009;28;20057;-66
2023/04/20 11:23:22;;;;;;;8.18;7.13;;;10.90;99.90;;;;;;4973250;28;20135;-66
2023/04/20 11:25:53;;;;;;;9.45;7.38;;;10.90;99.90;;;;;;4974896;28;20078;-65
2023/04/20 11:28:19;;;;;;;9.68;8.10;;;10.90;99.90;;;;;;4973965;28;20050;-65
2023/04/20 11:30:46;;;;;;;10.07;8.60;;;11.00;99.90;;;;;;4973734;28;20121;-66
2023/04/20 11:33:12;;;;;;;9.45;7.53;;;10.90;99.90;;;;;;4972623;28;20082;-65
2023/04/20 11:35:40;;;;;;;10.30;7.85;;;11.00;99.90;;;;;;4958141;28;20054;-65
2023/04/20 11:38:07;;;;;;;8.43;7.03;;;10.90;99.90;;;;;;4989193;28;20097;-65
2023/04/20 11:40:34;;;;;;;11.50;7.95;;;10.80;99.90;;;;;;4973935;28;20061;-65
2023/04/20 11:43:01;;;;;;;10.02;9.02;;;10.90;99.90;;;;;;4975730;28;20042;-66
2023/04/20 11:45:32;;;;;;;10.05;9.05;;;11.00;99.90;;;;;;4974456;28;20081;-65
2023/04/20 11:47:58;;;;;;;10.05;8.27;;;11.00;99.90;;;;;;4976216;28;20089;-65
2023/04/20 11:50:25;;;;;;;8.63;7.45;;;11.10;99.90;;;;;;4956887;28;20550;-65
2023/04/20 11:52:51;;;;;;;8.98;7.57;;;11.30;99.90;;;;;;4972674;28;20382;-66
2023/04/20 11:55:17;;;;;;;9.93;7.93;;;11.40;99.90;;;;;;4957232;28;20129;-65
2023/04/20 11:57:44;;;;;;;9.25;7.47;;;11.80;99.90;;;;;;4974358;28;20046;-66
2023/04/20 12:00:11;;;;;;;7.97;7.13;;;12.10;99.90;;;;;;4956330;28;20057;-65
2023/04/20 12:02:38;;;;;;;8.40;7.47;;;12.00;99.90;;;;;;4972152;28;20046;-66
2023/04/20 12:05:04;;;;;;;9.38;7.70;;;11.80;99.90;;;;;;4972381;28;20133;-65
2023/04/20 12:07:31;;;;;;;9.57;7.70;;;11.70;99.90;;;;;;4974462;28;20066;-65
2023/04/20 12:09:57;;;;;;;9.55;8.48;;;11.60;99.90;;;;;;4974069;28;20142;-65
2023/04/20 12:12:25;;;;;;;10.40;8.57;;;11.40;99.90;;;;;;4972100;28;20503;-65
2023/04/20 12:14:51;;;;;;;11.52;7.60;;;11.30;99.90;;;;;;4972200;28;20420;-65
2023/04/20 12:17:17;;;;;;;12.18;8.80;;;11.20;99.90;;;;;;4972250;28;20078;-65
2023/04/20 12:19:43;;;;;;;9.30;7.38;;;11.30;99.90;;;;;;4972097;28;20069;-65
2023/04/20 12:22:10;;;;;;;8.77;7.70;;;11.50;99.90;;;;;;4971871;28;20084;-64
2023/04/20 12:24:36;;;;;;;10.43;8.00;;;11.60;99.90;;;;;;4972888;28;20082;-65
2023/04/20 12:27:04;;;;;;;8.80;7.63;;;11.70;99.90;;;;;;4976752;28;20051;-65
2023/04/20 12:29:31;;;;;;;10.90;9.63;;;11.70;99.90;;;;;;4972489;28;20081;-64
2023/04/20 12:31:58;;;;;;;10.52;7.13;;;11.60;99.90;;;;;;4971621;28;20536;-64
2023/04/20 12:34:25;;;;;;;9.27;7.95;;;11.60;99.90;;;;;;4972406;28;20129;-63
2023/04/20 12:36:51;;;;;;;10.60;8.45;;;11.50;99.90;;;;;;4971779;28;20152;-65
2023/04/20 12:39:18;;;;;;;10.43;7.55;;;11.60;99.90;;;;;;4972122;28;20046;-64
2023/04/20 12:41:44;;;;;;;10.27;7.45;;;11.80;99.90;;;;;;4971783;28;20157;-63
2023/04/20 12:44:12;;;;;;;9.50;7.70;;;12.00;99.90;;;;;;4956075;28;20128;-64
2023/04/20 12:46:38;;;;;;;9.15;7.30;;;12.30;99.90;;;;;;4972748;28;20070;-63
2023/04/20 12:49:04;;;;;;;8.32;7.28;;;12.40;99.90;;;;;;4971646;28;20090;-63
2023/04/20 12:51:31;;;;;;;9.05;7.57;;;12.40;99.90;;;;;;4989628;28;20180;-64
2023/04/20 12:53:57;;;;;;;10.18;8.77;;;12.20;99.90;;;;;;4976358;28;20141;-63
2023/04/20 12:56:23;;;;;;;11.80;7.80;;;12.20;99.90;;;;;;4996628;28;20074;-63